Sheridan, WY (82801)

10:07 AM MDT on May 24, 2015 (GMT -0600)
North Airport Area | | Change Station
CLOSE
Current Station
Personal Weather Station
Location: Sheridan, WY
Elevation: 3917 ft
Nearby Weather Stations

Elev 3917 ft 44.78 °N, 106.97 °W | Updated 6 minutes ago

Rain
Rain Mist
50.0 °F
Feels Like 49 °F
N
4.2
Wind Variable Wind from NNW

Today
High -- | Low -- °F
--% Chance of Precip.
Yesterday
High -- | Low -- °F
Precip. -- in
5:30 AM 8:39 PM
Waxing Crescent, 40% visible
Pressure 29.98 in
Visibility 4.0 miles
Clouds Mostly Cloudy 400 ft
Overcast 4600 ft
Windchill 49 °F
Dew Point 50 °F
Humidity 98%
Rainfall 0.59 in
Snow Depth Not available.
UV 2 out of 12
Pollen 1.00 out of 12
Air Quality Not available.
Flu Activity Sporadic
METAR KSHR 241553Z AUTO 33008KT 4SM RA BR BKN004 OVC046 10/09 A2999 RMK AO2 SLP150 P0007 T01000089

More Conditions Fewer Conditions

Pressure 29.98 in
Visibility 4.0 miles
Clouds Mostly Cloudy 400 ft
Overcast 4600 ft
Windchill 49 °F
Dew Point 50 °F
Humidity 98%
Rainfall 0.59 in
Snow Depth Not available.
UV 2 out of 12
Pollen 1.00 out of 12
Air Quality Not available.
Flu Activity Sporadic
METAR KSHR 241553Z AUTO 33008KT 4SM RA BR BKN004 OVC046 10/09 A2999 RMK AO2 SLP150 P0007 T01000089

More Conditions Fewer Conditions

10-Day Weather Forecast

Almanac

Astronomy

May. 24, 2015 Rise Set
Actual Time
Civil Twilight
Nautical Twilight
Astronomical Twilight
Moon
Length of Visible Light
Length of Day
Tomorrow will be .
, % of the Moon is Illuminated

Today's Extremes

State Highs State Lows

Community

WunderPhotos

Upload Photos

1,823,781 photos uploaded!

WunderBlogs® & News

Nearby

Air Quality

  Air Quality AQ Index Pollutant
Not available.

Snow Depth

Station Depth Elevation

Earthquake Activity

City Distance Mag. Time & Date
Minimum magnitude displayed is 2.5.

Coastal Water Temperatures

Place Temperature

Stations

Nearby Weather Stations

Station Location Temp. Windchill Dew Point Humidity Wind Precip. Elev Updated Type